Lakeview, OR

1:20 PM PDT en Septiembre 29, 2016 (GMT -0700)
APRSWXNET | | Change Station
Aviso en curso: Fire Weather Warning

Alt 4681 ft 42.18 °N, 120.46 °W | Updated 33 minutes ago

Clear
Despejado
74 ° F
Sensación térmica 76 ° F
N
13
Viento Variable Viento desde SO
Gusts 0.0 mph

Hoy
Alta -- | Baja -- ° F
--% Posibilidad de precipitaciones
Ayer
Alta -- | Baja -- ° F
Precip. -- pul
Presión 30.13 pul
Visibilidad 10.0 Millas
Nubes Despejado
Índice de calor 76 ° F
Punto de rocío 36 ° F
Humedad 25%
Precipitaciones pul
Espesor de la nieve No disponible.
6:56 AM 6:45 PM
Creciente menguante, 1% visible
METAR KLKV 292015Z 21013G20KT 10SM CLR 26/00 A3013 RMK AO1
Presión 30.13 pul
Visibilidad 10.0 Millas
Nubes Despejado
Índice de calor 76 ° F
Punto de rocío 36 ° F
Humedad 25%
Precipitaciones pul
Espesor de la nieve No disponible.
6:56 AM 6:45 PM
Creciente menguante, 1% visible
METAR KLKV 292015Z 21013G20KT 10SM CLR 26/00 A3013 RMK AO1

10-Day Weather Forecast

Almanac

Astronomía

Sep. 29, 2016 Salida Puesta
Hora real
Crepúsculo civil
Crepúsculo náutico
Crepúsculo astronómico
Luna
Horas de luz
Horas de luz
Tomorrow will be .
, % of the Moon is Illuminated

Extremos de hoy

Máximos del estado Bajos del estado

Community

WunderPhotos

Upload Photos

1,942,560 ¡fotos cargadas!

WunderBlog® & News

Nearby

Calidad del aire

  Calidad del aire Índice AQ Contaminante
Not available.

Grosos de nieve

Estación Profundido Altura

Actividad de terremotos

Ciudad Distance Mag. Tiempo y dato
Magnitud mínima muestra es 2,5.

Temperaturas de aguas costeras

Lugar Temperatura

Stations

Estaciones meteorológicas cercanas

Ubicación de la estación Temp. Vientos helados Punto de rocío Humedad Viento Precip. Alt Actualizado Tipo
                   

Watches & Warnings

Fire Weather Warning
Issued: 6:01 AM PDT Sep. 29, 2016 – National Weather Service

... Red flag warning remains in effect from 1 PM this afternoon to
7 PM PDT this evening for strong gusty wind with low humidity for
fire weather zones 285 and 624...

* impacts: strong... gusty wind with low relative humidity and
high fire danger will likely contribute to a significant
spread of any new and existing fires.

* Affected area: eastern half of fire weather zone 285 in
northern California. Southeastern portion of fire weather
zone 624 in southern Oregon.

* Counties affected: in northern CA... eastern Modoc. In south
central or... extreme southeastern Klamath and southwestern
lake.

* Wind: southwest 15 to 20 mph with gusts up to 35 mph.

* Humidity: 14 to 18 percent.

* View the hazard area in detail at
http://weather.Gov/Medford/hazard

Precautionary/preparedness actions...

* a red flag warning means that critical fire weather
conditions will occur shortly.

* Strong winds and low relative humidities will cause any
existing or new fires to spread very rapidly.

* One less spark... one less wildfire.